Terminal Aerodrome Forecast
Issued by NWS Albany, NY

Home | Current Version | Previous Version | Text Only | Print | Product List | Glossary On
Versions: 1 2 3 4 5 6 7 8 9 10 11 12 13 14 15 16 17 18
108
FTUS41 KALY 261734
TAFALB
TAF
KALB 261734Z 2618/2718 02005KT P6SM VCSH SCT015 OVC035
      TEMPO 2618/2622 BKN015 OVC035
     FM270000 05004KT P6SM OVC025
     FM270700 VRB03KT P6SM OVC015
     FM271400 18006KT P6SM SCT020
     FM271500 18006KT P6SM SCT035=

USA.gov is the U.S. government's official web portal to all federal, state and local government web resources and services.